.
WxDataArchive / Data Records for 2012-07-16
2012-07-15 July 2012 2012-07-17

Data Records for Monday, 16 July 2012

Time	Temp	Chill	HIndex	Humid	Dewpt	 Wind 	HiWind	WindDir	Rain 	Barom 
-----	----	-----	------	-----	-----	------	------	-------	-----	----- 
00:00	76.5	76.5	78.3	64	63.4	0	0	---	0.00	29.993 
00:05	76.1	76.1	78.0	64	63.0	0	0	---	0.00	29.993 
00:10	75.8	75.8	77.7	65	63.2	0	0	---	0.00	29.993 
00:15	75.4	75.4	77.4	65	62.8	0	0	---	0.00	29.990 
00:20	75.1	75.1	77.1	66	62.9	0	0	---	0.00	29.990 
00:25	74.7	74.7	74.7	67	63.0	0	0	---	0.00	29.990 
00:30	74.6	74.6	74.6	68	63.3	0	0	---	0.00	29.991 
00:35	74.4	74.4	74.4	69	63.5	0	0	---	0.00	29.991 
00:40	74.0	74.0	74.0	69	63.2	0	0	---	0.00	29.991 
00:45	73.9	73.9	73.9	69	63.1	0	0	---	0.00	29.991 
00:50	73.7	73.7	73.7	70	63.3	0	0	---	0.00	29.991 
00:55	73.5	73.5	73.5	71	63.5	0	0	---	0.00	29.991 
01:00	73.5	73.5	73.5	71	63.5	0	0	---	0.00	29.991 
01:05	73.5	73.5	73.5	71	63.5	0	0	---	0.00	29.991 
01:10	73.5	73.5	73.5	71	63.5	0	0	---	0.00	29.991 
01:15	73.3	73.3	73.3	71	63.3	0	0	---	0.00	29.996 
01:20	73.2	73.2	73.2	71	63.2	0	0	---	0.00	29.996 
01:25	73.0	73.0	73.0	71	63.0	0	0	---	0.00	29.996 
01:30	72.8	72.8	72.8	72	63.2	0	0	---	0.00	29.990 
01:35	72.7	72.7	72.7	72	63.1	0	0	---	0.00	29.990 
01:40	72.5	72.5	72.5	73	63.3	0	0	---	0.00	29.990 
01:45	72.3	72.3	72.3	74	63.5	0	0	---	0.00	29.988 
01:50	72.1	72.1	72.1	74	63.3	0	0	---	0.00	29.988 
01:55	72.0	72.0	72.0	75	63.6	0	0	---	0.00	29.988 
02:00	72.0	72.0	72.0	75	63.6	0	0	---	0.00	29.987 
02:05	72.0	72.0	72.0	75	63.6	0	0	---	0.00	29.987 
02:10	71.8	71.8	71.8	75	63.4	0	0	---	0.00	29.987 
02:15	71.6	71.6	71.6	75	63.2	0	0	---	0.00	29.985 
02:20	71.6	71.6	71.6	76	63.6	0	0	---	0.00	29.985 
02:25	71.3	71.3	71.3	76	63.3	0	0	---	0.00	29.985 
02:30	71.1	71.1	71.1	77	63.5	0	0	---	0.00	29.984 
02:35	71.5	71.5	71.5	77	63.9	0	0	---	0.00	29.984 
02:40	71.6	71.6	71.6	76	63.6	0	0	---	0.00	29.984 
02:45	71.6	71.6	71.6	76	63.6	0	0	---	0.00	29.982 
02:50	71.5	71.5	71.5	76	63.5	0	0	---	0.00	29.982 
02:55	71.6	71.6	71.6	76	63.6	0	1	292	0.00	29.982 
03:00	71.6	71.6	71.6	76	63.6	0	0	---	0.00	29.982 
03:05	71.6	71.6	71.6	76	63.6	0	0	---	0.00	29.982 
03:10	71.5	71.5	71.5	76	63.5	0	0	---	0.00	29.982 
03:15	71.3	71.3	71.3	77	63.7	0	0	---	0.00	29.983 
03:20	71.1	71.1	71.1	77	63.5	0	0	---	0.00	29.983 
03:25	70.9	70.9	70.9	78	63.7	0	0	---	0.00	29.983 
03:30	70.8	70.8	70.8	78	63.6	0	0	---	0.00	29.979 
03:35	70.6	70.6	70.6	78	63.4	0	0	---	0.00	29.979 
03:40	70.3	70.3	70.3	79	63.5	0	0	---	0.00	29.979 
03:45	70.1	70.1	70.1	80	63.6	0	0	---	0.00	29.980 
03:50	69.8	69.8	69.8	80	63.3	0	0	---	0.00	29.980 
03:55	69.4	69.4	69.4	81	63.3	0	0	---	0.00	29.980 
04:00	69.3	69.3	69.3	81	63.2	0	0	---	0.00	29.972 
04:05	69.3	69.3	69.3	82	63.6	0	0	---	0.00	29.972 
04:10	69.4	69.4	69.4	83	64.0	0	0	---	0.00	29.972 
04:15	69.8	69.8	69.8	83	64.4	0	1	292	0.00	29.971 
04:20	69.9	69.9	69.9	82	64.1	0	0	---	0.00	29.971 
04:25	70.1	70.1	70.1	82	64.3	0	0	---	0.00	29.971 
04:30	70.1	70.1	70.1	81	64.0	0	0	---	0.00	29.970 
04:35	69.9	69.9	69.9	81	63.8	0	0	---	0.00	29.970 
04:40	69.8	69.8	69.8	81	63.7	0	0	---	0.00	29.970 
04:45	69.6	69.6	69.6	82	63.9	0	0	---	0.00	29.970 
04:50	69.4	69.4	69.4	82	63.7	0	0	---	0.00	29.970 
04:55	69.1	69.1	69.1	82	63.4	0	1	292	0.00	29.970 
05:00	68.9	68.9	68.9	83	63.5	0	0	---	0.00	29.971 
05:05	68.8	68.8	68.8	84	63.8	0	0	---	0.00	29.971 
05:10	68.6	68.6	68.6	84	63.6	0	0	---	0.00	29.971 
05:15	68.4	68.4	68.4	84	63.4	0	0	---	0.00	29.974 
05:20	68.3	68.3	68.3	84	63.3	0	0	---	0.00	29.974 
05:25	68.1	68.1	68.1	85	63.4	0	0	---	0.00	29.974 
05:30	67.9	67.9	67.9	86	63.5	0	0	---	0.00	29.973 
05:35	67.8	67.8	67.8	86	63.5	0	0	---	0.00	29.973 
05:40	67.6	67.6	67.6	86	63.3	0	0	---	0.00	29.973 
05:45	67.4	67.4	67.4	86	63.1	0	0	---	0.00	29.979 
05:50	67.3	67.3	67.3	87	63.3	0	0	---	0.00	29.979 
05:55	67.1	67.1	67.1	87	63.1	0	0	---	0.00	29.979 
06:00	67.1	67.1	67.1	87	63.1	0	0	---	0.00	29.986 
06:05	66.9	66.9	66.9	87	62.9	0	0	---	0.00	29.986 
06:10	66.8	66.8	66.8	87	62.8	0	0	---	0.00	29.986 
06:15	66.8	66.8	66.8	88	63.1	0	0	---	0.00	29.986 
06:20	66.6	66.6	66.6	88	62.9	0	0	---	0.00	29.986 
06:25	66.4	66.4	66.4	88	62.7	0	0	---	0.00	29.986 
06:30	66.4	66.4	66.4	88	62.7	0	0	---	0.00	29.986 
06:35	66.3	66.3	66.3	88	62.6	0	0	---	0.00	29.986 
06:40	66.3	66.3	66.3	88	62.6	0	0	---	0.00	29.986 
06:45	66.3	66.3	66.3	89	63.0	0	0	---	0.00	29.989 
06:50	66.3	66.3	66.3	89	63.0	0	0	---	0.00	29.989 
06:55	66.3	66.3	66.3	89	63.0	0	0	---	0.00	29.989 
07:00	66.3	66.3	66.3	89	63.0	0	0	---	0.00	29.989 
07:05	66.4	66.4	66.4	90	63.4	0	0	---	0.00	29.989 
07:10	66.4	66.4	66.4	90	63.4	0	0	---	0.00	29.989 
07:15	66.6	66.6	66.6	90	63.6	0	0	---	0.00	29.990 
07:20	66.8	66.8	66.8	90	63.8	0	0	---	0.00	29.990 
07:25	67.1	67.1	67.1	90	64.1	0	0	---	0.00	29.990 
07:30	67.6	67.6	67.6	91	64.9	0	0	---	0.00	29.995 
07:35	68.3	68.3	68.3	89	64.9	0	0	---	0.00	29.995 
07:40	68.9	68.9	68.9	89	65.5	0	0	---	0.00	29.995 
07:45	69.6	69.6	69.6	88	65.9	0	0	---	0.00	29.998 
07:50	70.3	70.3	70.3	87	66.2	0	0	---	0.00	29.998 
07:55	71.3	71.3	71.3	85	66.5	0	0	---	0.00	29.998 
08:00	72.3	72.3	72.3	82	66.5	0	0	---	0.00	29.998 
08:05	73.3	73.3	73.3	79	66.4	0	1	292	0.00	29.998 
08:10	74.4	74.4	74.4	77	66.7	0	1	292	0.00	29.998 
08:15	75.3	75.3	76.4	76	67.2	0	2	292	0.00	29.999 
08:20	75.8	75.8	77.1	75	67.3	0	1	270	0.00	29.999 
08:25	76.1	76.1	77.5	74	67.2	0	2	338	0.00	29.999 
08:30	76.1	76.1	77.5	74	67.2	0	2	338	0.00	29.992 
08:35	76.5	76.5	78.1	74	67.6	0	1	338	0.00	29.992 
08:40	77.6	77.6	79.5	72	67.8	0	1	338	0.00	29.992 
08:45	78.1	78.1	80.2	71	67.9	0	2	338	0.00	29.993 
08:50	78.1	78.1	80.2	70	67.5	0	1	338	0.00	29.993 
08:55	78.3	78.3	80.5	71	68.1	0	1	338	0.00	29.993 
09:00	78.5	78.5	80.7	70	67.9	0	1	338	0.00	29.993 
09:05	78.8	78.8	81.1	70	68.2	0	2	338	0.00	29.993 
09:10	79.0	79.0	81.3	69	67.9	1	2	338	0.00	29.993 
09:15	79.4	79.4	81.9	69	68.3	0	2	338	0.00	29.993 
09:20	79.8	79.8	82.5	69	68.7	0	2	338	0.00	29.993 
09:25	80.3	80.3	83.2	68	68.8	1	2	338	0.00	29.993 
09:30	80.9	80.9	84.0	67	68.9	0	2	338	0.00	29.989 
09:35	81.2	81.2	84.3	66	68.7	1	3	338	0.00	29.989 
09:40	81.4	81.4	84.4	65	68.5	1	3	338	0.00	29.989 
09:45	82.0	82.0	85.2	64	68.6	1	4	338	0.00	29.982 
09:50	82.4	82.4	85.6	63	68.5	2	3	292	0.00	29.982 
09:55	82.8	82.8	86.1	62	68.4	1	3	315	0.00	29.982 
10:00	83.4	83.4	87.0	62	69.0	1	2	292	0.00	29.980 
10:05	83.8	83.8	87.2	60	68.4	1	2	315	0.00	29.980 
10:10	84.5	84.5	87.8	58	68.1	1	2	315	0.00	29.980 
10:15	84.9	84.9	88.5	58	68.4	1	3	315	0.00	29.981 
10:20	85.5	85.5	88.9	56	68.0	1	3	315	0.00	29.981 
10:25	86.1	86.1	89.6	55	68.0	1	2	315	0.00	29.981 
10:30	86.5	86.5	89.9	54	67.8	1	4	315	0.00	29.978 
10:35	87.0	87.0	90.4	53	67.8	2	5	270	0.00	29.978 
10:40	87.4	87.4	90.7	52	67.6	1	3	270	0.00	29.978 
10:45	87.6	87.6	90.4	50	66.6	2	4	270	0.00	29.975 
10:50	88.0	88.0	91.0	50	67.0	2	4	292	0.00	29.975 
10:55	88.0	88.0	91.4	51	67.6	1	4	270	0.00	29.975 
11:00	88.8	88.8	92.4	50	67.7	1	3	270	0.00	29.971 
11:05	89.3	89.3	92.5	48	67.0	2	4	270	0.00	29.971 
11:10	89.7	89.7	92.4	46	66.1	1	4	270	0.00	29.971 
11:15	89.9	89.9	92.3	45	65.7	2	4	270	0.00	29.971 
11:20	89.9	89.9	92.3	45	65.7	2	4	270	0.00	29.971 
11:25	90.1	90.1	93.1	46	66.5	2	4	270	0.00	29.971 
11:30	90.3	90.3	93.4	46	66.7	1	3	270	0.00	29.967 
11:35	90.5	90.5	92.5	43	64.9	2	5	270	0.00	29.967 
11:40	90.7	90.7	93.3	44	65.7	3	6	270	0.00	29.967 
11:45	90.5	90.5	92.5	43	64.9	2	5	270	0.00	29.970 
11:50	90.7	90.7	92.9	43	65.1	1	4	315	0.00	29.970 
11:55	91.2	91.2	93.7	43	65.5	3	7	270	0.00	29.970 
12:00	90.7	90.7	92.9	43	65.1	1	3	315	0.00	29.969 
12:05	91.2	91.2	93.3	42	64.9	2	4	270	0.00	29.969 
12:10	91.2	91.2	92.9	41	64.2	2	4	315	0.00	29.969 
12:15	91.6	91.6	93.9	42	65.2	1	3	315	0.00	29.976 
12:20	92.1	92.1	93.9	40	64.3	2	5	270	0.00	29.976 
12:25	91.6	91.6	93.1	40	63.8	3	6	270	0.00	29.976 
12:30	91.8	91.8	93.4	40	64.0	1	4	270	0.00	29.970 
12:35	92.3	92.3	93.1	37	62.2	2	4	315	0.00	29.970 
12:40	91.4	91.4	92.1	38	62.2	2	5	315	0.00	29.970 
12:45	91.0	91.0	91.8	39	62.6	1	5	270	0.00	29.967 
12:50	91.0	91.0	91.8	39	62.6	1	3	270	0.00	29.967 
12:55	92.3	92.3	93.1	37	62.2	2	9	270	0.00	29.967 
13:00	93.6	93.6	94.3	35	61.8	2	4	270	0.00	29.960 
13:05	94.3	94.3	94.5	33	60.7	2	5	248	0.00	29.960 
13:10	94.5	94.5	94.4	32	60.0	1	4	270	0.00	29.960 
13:15	94.9	94.9	94.6	31	59.5	1	3	270	0.00	29.952 
13:20	95.6	95.6	95.7	31	60.1	1	4	270	0.00	29.952 
13:25	95.1	95.1	94.2	29	57.8	1	4	270	0.00	29.952 
13:30	94.3	94.3	94.1	32	59.9	1	2	270	0.00	29.950 
13:35	94.0	94.0	93.7	32	59.6	3	5	270	0.00	29.950 
13:40	94.5	94.5	94.4	32	60.0	1	5	292	0.00	29.950 
13:45	95.4	95.4	95.0	30	59.0	2	5	248	0.00	29.942 
13:50	96.1	96.1	95.2	28	57.7	2	4	248	0.00	29.942 
13:55	96.6	96.6	95.9	28	58.1	1	4	292	0.00	29.942 
14:00	95.6	95.6	94.2	27	56.2	2	4	270	0.00	29.933 
14:05	94.7	94.7	93.6	29	57.4	1	4	270	0.00	29.933 
14:10	95.1	95.1	93.5	27	55.8	2	5	270	0.00	29.933 
14:15	96.1	96.1	94.9	27	56.7	2	6	338	0.00	29.919 
14:20	95.9	95.9	94.9	28	57.5	3	6	270	0.00	29.919 
14:25	96.3	96.3	95.5	28	57.8	1	3	270	0.00	29.919 
14:30	96.8	96.8	95.8	27	57.2	2	5	270	0.00	29.917 
14:35	96.3	96.3	95.5	28	57.8	3	5	270	0.00	29.917 
14:40	95.9	95.9	94.2	26	55.4	3	5	315	0.00	29.917 
14:45	96.3	96.3	94.4	25	54.7	1	3	292	0.00	29.914 
14:50	96.8	96.8	96.2	28	58.3	2	4	292	0.00	29.914 
14:55	97.3	97.3	96.6	27	57.7	2	5	270	0.00	29.914 
15:00	97.3	97.3	96.6	27	57.7	2	5	270	0.00	29.905 
15:05	97.1	97.1	96.3	27	57.5	2	7	270	0.00	29.905 
15:10	97.1	97.1	95.5	25	55.4	2	5	270	0.00	29.905 
15:15	97.3	97.3	96.6	27	57.7	1	5	270	0.00	29.903 
15:20	97.1	97.1	96.3	27	57.5	3	6	270	0.00	29.903 
15:25	97.3	97.3	96.2	26	56.6	2	4	270	0.00	29.903 
15:30	97.1	97.1	96.3	27	57.5	2	4	270	0.00	29.899 
15:35	96.1	96.1	94.9	27	56.7	2	4	270	0.00	29.899 
15:40	96.3	96.3	95.9	29	58.8	1	3	270	0.00	29.899 
15:45	97.3	97.3	96.6	27	57.7	1	5	315	0.00	29.897 
15:50	97.8	97.8	97.3	27	58.1	2	6	248	0.00	29.897 
15:55	98.0	98.0	97.6	27	58.3	2	5	248	0.00	29.897 
16:00	98.0	98.0	97.6	27	58.3	3	6	270	0.00	29.891 
16:05	98.2	98.2	97.4	26	57.4	2	5	270	0.00	29.891 
16:10	96.8	96.8	95.8	27	57.2	1	4	270	0.00	29.891 
16:15	95.9	95.9	94.6	27	56.5	1	3	292	0.00	29.890 
16:20	95.9	95.9	95.3	29	58.5	2	5	270	0.00	29.890 
16:25	96.6	96.6	95.9	28	58.1	3	6	270	0.00	29.890 
16:30	96.3	96.3	95.1	27	56.8	3	5	270	0.00	29.887 
16:35	95.6	95.6	94.5	28	57.2	3	5	292	0.00	29.887 
16:40	95.1	95.1	93.8	28	56.8	2	4	248	0.00	29.887 
16:45	94.3	94.3	93.4	30	58.0	2	4	315	0.00	29.887 
16:50	94.0	94.0	93.0	30	57.8	2	3	315	0.00	29.887 
16:55	94.3	94.3	93.4	30	58.0	2	4	315	0.00	29.887 
17:00	94.9	94.9	93.9	29	57.6	2	6	248	0.00	29.875 
17:05	94.9	94.9	93.9	29	57.6	2	4	248	0.00	29.875 
17:10	94.7	94.7	93.3	28	56.5	1	2	248	0.00	29.875 
17:15	94.3	94.3	93.1	29	57.1	1	2	270	0.00	29.871 
17:20	93.8	93.8	92.7	30	57.6	1	4	270	0.00	29.871 
17:25	93.6	93.6	92.1	29	56.5	1	3	270	0.00	29.871 
17:30	93.6	93.6	92.1	29	56.5	1	3	270	0.00	29.869 
17:35	93.4	93.4	91.9	29	56.3	1	3	270	0.00	29.869 
17:40	93.4	93.4	92.2	30	57.3	1	3	270	0.00	29.869 
17:45	93.4	93.4	92.2	30	57.3	1	3	270	0.00	29.863 
17:50	93.4	93.4	91.9	29	56.3	1	3	270	0.00	29.863 
17:55	93.4	93.4	91.9	29	56.3	1	4	315	0.00	29.863 
18:00	93.4	93.4	91.9	29	56.3	1	3	315	0.00	29.861 
18:05	93.4	93.4	91.9	29	56.3	1	2	315	0.00	29.861 
18:10	93.4	93.4	92.2	30	57.3	1	2	315	0.00	29.861 
18:15	93.2	93.2	91.9	30	57.1	0	2	315	0.00	29.858 
18:20	92.9	92.9	91.8	31	57.8	1	3	270	0.00	29.858 
18:25	92.7	92.7	91.6	31	57.6	1	3	270	0.00	29.858 
18:30	92.7	92.7	91.6	31	57.6	1	2	270	0.00	29.857 
18:35	92.9	92.9	91.8	31	57.8	1	3	292	0.00	29.857 
18:40	93.2	93.2	92.2	31	58.0	1	2	292	0.00	29.857 
18:45	93.2	93.2	91.9	30	57.1	1	2	292	0.00	29.856 
18:50	93.2	93.2	92.2	31	58.0	2	4	292	0.00	29.856 
18:55	93.2	93.2	92.6	32	58.9	1	3	292	0.00	29.856 
19:00	93.2	93.2	92.9	33	59.8	2	4	292	0.00	29.856 
19:05	92.5	92.5	92.3	34	60.0	2	4	315	0.00	29.856 
19:10	92.1	92.1	92.0	35	60.5	1	4	292	0.00	29.856 
19:15	91.6	91.6	91.3	35	60.0	0	2	292	0.00	29.846 
19:20	91.6	91.6	91.7	36	60.8	0	2	292	0.00	29.846 
19:25	91.8	91.8	91.6	35	60.2	1	3	292	0.00	29.846 
19:30	92.1	92.1	92.0	35	60.5	0	1	292	0.00	29.842 
19:35	92.3	92.3	92.0	34	59.8	0	2	292	0.00	29.842 
19:40	92.5	92.5	92.3	34	60.0	0	2	292	0.00	29.842 
19:45	92.7	92.7	92.5	34	60.2	0	2	292	0.00	29.842 
19:50	92.9	92.9	92.8	34	60.3	0	2	292	0.00	29.842 
19:55	93.2	93.2	92.9	33	59.8	1	3	292	0.00	29.842 
20:00	93.2	93.2	92.6	32	58.9	1	3	292	0.00	29.841 
20:05	93.2	93.2	92.6	32	58.9	1	3	292	0.00	29.841 
20:10	92.9	92.9	92.1	32	58.6	1	3	292	0.00	29.841 
20:15	92.7	92.7	92.2	33	59.3	1	2	292	0.00	29.834 
20:20	92.5	92.5	92.6	35	60.8	1	3	292	0.00	29.834 
20:25	92.3	92.3	92.0	34	59.8	0	1	292	0.00	29.834 
20:30	92.1	92.1	92.0	35	60.5	1	3	292	0.00	29.836 
20:35	91.8	91.8	91.9	36	61.0	0	2	292	0.00	29.836 
20:40	91.6	91.6	92.0	37	61.6	0	1	292	0.00	29.836 
20:45	91.2	91.2	91.8	38	62.0	0	2	292	0.00	29.837 
20:50	90.7	90.7	91.4	39	62.3	1	2	292	0.00	29.837 
20:55	90.3	90.3	91.1	40	62.7	1	2	292	0.00	29.837 
21:00	90.1	90.1	90.8	40	62.5	0	1	292	0.00	29.839 
21:05	89.9	89.9	90.9	41	63.0	0	1	292	0.00	29.839 
21:10	89.7	89.7	90.6	41	62.8	0	1	292	0.00	29.839 
21:15	89.3	89.3	90.0	41	62.5	0	1	292	0.00	29.835 
21:20	89.0	89.0	89.9	42	62.9	0	0	---	0.00	29.835 
21:25	88.6	88.6	89.6	43	63.2	0	1	292	0.00	29.835 
21:30	88.4	88.4	89.3	43	63.0	0	0	---	0.00	29.837 
21:35	88.0	88.0	89.4	45	64.0	0	0	---	0.00	29.837 
21:40	87.6	87.6	88.8	45	63.6	0	0	---	0.00	29.837 
21:45	87.2	87.2	88.5	46	63.9	0	0	---	0.00	29.838 
21:50	86.5	86.5	87.5	46	63.2	0	0	---	0.00	29.838 
21:55	86.3	86.3	87.5	47	63.7	0	0	---	0.00	29.838 
22:00	85.9	85.9	87.2	48	63.9	0	0	---	0.00	29.852 
22:05	85.5	85.5	86.6	48	63.5	0	0	---	0.00	29.852 
22:10	85.1	85.1	86.4	49	63.8	0	0	---	0.00	29.852 
22:15	84.7	84.7	86.0	50	64.0	0	0	---	0.00	29.847 
22:20	84.5	84.5	86.0	51	64.4	0	0	---	0.00	29.847 
22:25	84.3	84.3	85.7	51	64.2	0	0	---	0.00	29.847 
22:30	84.0	84.0	85.6	52	64.4	0	0	---	0.00	29.851 
22:35	83.8	83.8	85.3	52	64.3	0	0	---	0.00	29.851 
22:40	83.4	83.4	85.2	54	65.0	0	0	---	0.00	29.851 
22:45	83.2	83.2	84.9	54	64.8	0	0	---	0.00	29.851 
22:50	82.8	82.8	84.8	56	65.5	0	0	---	0.00	29.851 
22:55	82.6	82.6	84.5	56	65.3	0	0	---	0.00	29.851 
23:00	82.2	82.2	84.2	57	65.4	0	1	292	0.00	29.852 
23:05	82.2	82.2	84.2	57	65.4	0	0	---	0.00	29.852 
23:10	82.0	82.0	84.1	58	65.7	0	0	---	0.00	29.852 
23:15	82.0	82.0	84.1	58	65.7	0	0	---	0.00	29.853 
23:20	82.0	82.0	84.1	58	65.7	0	0	---	0.00	29.853 
23:25	82.2	82.2	84.3	58	65.9	0	0	---	0.00	29.853 
23:30	82.2	82.2	84.3	58	65.9	0	1	292	0.00	29.851 
23:35	82.2	82.2	84.3	58	65.9	0	0	---	0.00	29.851 
23:40	82.0	82.0	84.1	58	65.7	0	1	292	0.00	29.851 
23:45	82.0	82.0	84.1	58	65.7	0	0	---	0.00	29.851 
23:50	81.8	81.8	83.8	58	65.6	0	0	---	0.00	29.851 
23:55	81.6	81.6	83.7	59	65.9	0	0	---	0.00	29.851 

CoCoRaHS
IN-AL-39
A2 Web Hosting
Creative Commons License
GoDaddy
search engine by freefind advanced

loaded 2018-11-20 08:26:35 • last modified 2010-11-18 10:43:29
Privacy PolicyDisclaimer
• wx.awcolley.com is powered by PmWiki v.2002016 •
• all content (unless otherwise noted) © 2018 A W Colley